createdAt,value
2018-10-11T00:01:27.723Z,21.55
2018-10-11T00:04:01.546Z,19.52
2018-10-11T00:06:35.511Z,19.73
2018-10-11T00:09:10.764Z,19.85
2018-10-11T00:11:44.677Z,19.00
2018-10-11T00:14:18.577Z,19.62
2018-10-11T00:16:52.435Z,19.65
2018-10-11T00:19:26.248Z,20.15
2018-10-11T00:22:00.109Z,19.15
2018-10-11T00:24:33.913Z,23.85
2018-10-11T00:27:07.853Z,25.32
2018-10-11T00:29:41.763Z,21.40
2018-10-11T00:32:15.679Z,20.27
2018-10-11T00:34:49.499Z,22.90
2018-10-11T00:37:23.399Z,22.25
2018-10-11T00:39:57.260Z,20.55
2018-10-11T00:42:31.142Z,21.52
2018-10-11T00:45:05.061Z,19.00
2018-10-11T00:47:39.008Z,19.60
2018-10-11T00:50:12.833Z,21.02
2018-10-11T00:52:46.747Z,21.17
2018-10-11T00:55:20.579Z,26.48
2018-10-11T00:57:54.521Z,19.45
2018-10-11T01:00:28.354Z,23.65
2018-10-11T01:03:02.196Z,23.38
2018-10-11T01:05:36.005Z,23.10
2018-10-11T01:08:09.996Z,20.95
2018-10-11T01:10:43.792Z,25.75
2018-10-11T01:13:17.777Z,27.00
2018-10-11T01:15:51.645Z,28.17
2018-10-11T01:18:25.613Z,25.23
2018-10-11T01:20:59.435Z,24.60
2018-10-11T01:23:33.291Z,25.60
2018-10-11T01:26:07.181Z,26.55
2018-10-11T01:28:41.093Z,24.85
2018-10-11T01:31:22.319Z,24.32
2018-10-11T01:33:56.589Z,24.32
2018-10-11T01:36:30.584Z,24.07
2018-10-11T01:39:05.258Z,23.73
2018-10-11T01:41:39.239Z,23.95
2018-10-11T01:44:13.217Z,25.52
2018-10-11T01:46:47.148Z,23.77
2018-10-11T01:49:21.219Z,27.70
2018-10-11T01:51:55.219Z,25.20
2018-10-11T01:54:29.223Z,28.10
2018-10-11T01:57:03.296Z,31.12
2018-10-11T01:59:38.984Z,30.70
2018-10-11T02:02:12.938Z,29.70
2018-10-11T02:04:46.902Z,25.50
2018-10-11T02:07:20.878Z,29.52
2018-10-11T02:09:54.858Z,27.40
2018-10-11T02:12:28.975Z,25.48
2018-10-11T02:15:02.945Z,28.67
2018-10-11T02:17:36.890Z,30.32
2018-10-11T02:20:10.975Z,25.70
2018-10-11T02:22:44.927Z,29.87
2018-10-11T02:25:18.918Z,25.17
2018-10-11T02:27:52.863Z,25.82
2018-10-11T02:30:26.902Z,24.85
2018-10-11T02:33:01.033Z,25.25
2018-10-11T02:35:35.087Z,27.20
2018-10-11T02:38:09.105Z,24.85
2018-10-11T02:40:43.050Z,26.15
2018-10-11T02:43:16.982Z,31.85
2018-10-11T02:45:50.968Z,32.20
2018-10-11T02:48:24.894Z,30.10
2018-10-11T02:50:59.159Z,28.35
2018-10-11T02:53:33.137Z,33.45
2018-10-11T02:56:07.404Z,29.98
2018-10-11T02:58:52.408Z,29.00
2018-10-11T03:01:26.469Z,28.07
2018-10-11T03:04:04.517Z,27.52
2018-10-11T03:06:39.813Z,26.25
2018-10-11T03:09:13.989Z,33.45
2018-10-11T03:11:48.267Z,24.77
2018-10-11T03:14:22.276Z,25.85
2018-10-11T03:16:56.306Z,29.45
2018-10-11T03:19:30.279Z,28.73
2018-10-11T03:22:04.385Z,32.35
2018-10-11T03:24:38.422Z,26.35
2018-10-11T03:27:12.534Z,27.90
2018-10-11T03:29:46.547Z,27.93
2018-10-11T03:32:20.607Z,28.60
2018-10-11T03:34:54.595Z,28.95
2018-10-11T03:37:28.692Z,31.65
2018-10-11T03:40:02.625Z,28.50
2018-10-11T03:42:36.729Z,27.80
2018-10-11T03:45:11.027Z,27.90
2018-10-11T03:47:45.141Z,29.75
2018-10-11T03:50:19.105Z,32.15
2018-10-11T03:52:53.198Z,30.62
2018-10-11T03:55:27.626Z,28.90
2018-10-11T03:58:01.595Z,29.30
2018-10-11T04:00:35.617Z,30.25
2018-10-11T04:03:09.630Z,31.45
2018-10-11T04:05:43.595Z,26.65
2018-10-11T04:08:17.560Z,28.42
2018-10-11T04:10:52.538Z,27.65
2018-10-11T04:13:26.615Z,28.55
2018-10-11T04:16:00.959Z,29.82
2018-10-11T04:18:39.719Z,36.38
2018-10-11T04:21:13.636Z,31.85
2018-10-11T04:23:47.604Z,36.08
2018-10-11T04:26:21.680Z,36.08
2018-10-11T04:28:55.639Z,36.03
2018-10-11T04:31:29.612Z,37.00
2018-10-11T04:34:03.650Z,38.35
2018-10-11T04:36:37.591Z,41.10
2018-10-11T04:39:11.559Z,39.60
2018-10-11T04:41:45.526Z,34.85
2018-10-11T04:44:19.464Z,35.15
2018-10-11T04:46:53.489Z,32.25
2018-10-11T04:49:27.529Z,31.65
2018-10-11T04:52:01.512Z,32.03
2018-10-11T04:54:35.460Z,30.70
2018-10-11T04:57:09.445Z,37.05
2018-10-11T04:59:43.434Z,30.80
2018-10-11T05:02:17.393Z,35.35
2018-10-11T05:04:51.493Z,30.32
2018-10-11T05:07:25.537Z,31.55
2018-10-11T05:09:59.548Z,32.73
2018-10-11T05:12:33.568Z,31.80
2018-10-11T05:15:07.857Z,34.33
2018-10-11T05:17:42.920Z,37.42
2018-10-11T05:20:17.022Z,29.32
2018-10-11T05:22:51.044Z,30.50
2018-10-11T05:25:25.193Z,28.92
2018-10-11T05:27:59.205Z,29.72
2018-10-11T05:30:33.166Z,29.82
2018-10-11T05:33:07.329Z,27.93
2018-10-11T05:35:41.274Z,29.35
2018-10-11T05:38:15.379Z,28.57
2018-10-11T05:40:49.368Z,26.77
2018-10-11T05:43:23.566Z,35.60
2018-10-11T05:45:59.252Z,37.25
2018-10-11T05:48:34.478Z,31.42
2018-10-11T05:51:08.531Z,35.25
2018-10-11T05:53:42.604Z,27.07
2018-10-11T05:56:17.596Z,28.17
2018-10-11T05:58:52.382Z,28.25
2018-10-11T06:01:26.567Z,28.83
2018-10-11T06:04:00.661Z,33.13
2018-10-11T06:06:34.678Z,27.80
2018-10-11T06:09:10.300Z,29.93
2018-10-11T06:11:45.538Z,30.52
2018-10-11T06:14:19.603Z,30.50
2018-10-11T06:16:53.624Z,29.32
2018-10-11T06:19:27.805Z,30.57
2018-10-11T06:22:01.848Z,35.13
2018-10-11T06:24:36.319Z,28.45
2018-10-11T06:27:10.312Z,28.10
2018-10-11T06:29:44.355Z,28.60
2018-10-11T06:32:18.504Z,31.50
2018-10-11T06:34:52.617Z,29.80
2018-10-11T06:37:27.107Z,26.85
2018-10-11T06:40:02.196Z,28.30
2018-10-11T06:42:36.250Z,30.37
2018-10-11T06:45:11.351Z,29.70
2018-10-11T06:47:47.992Z,30.70
2018-10-11T06:50:22.143Z,28.92
2018-10-11T06:52:56.179Z,27.00
2018-10-11T06:55:30.183Z,28.23
2018-10-11T06:58:04.237Z,29.00
2018-10-11T07:00:38.199Z,27.52
2018-10-11T07:03:12.277Z,27.25
2018-10-11T07:05:46.276Z,26.17
2018-10-11T07:08:20.271Z,28.62
2018-10-11T07:10:54.776Z,24.10
2018-10-11T07:13:28.689Z,28.60
2018-10-11T07:16:02.839Z,26.85
2018-10-11T07:18:36.849Z,25.50
2018-10-11T07:21:11.114Z,25.90
2018-10-11T07:23:45.064Z,26.77
2018-10-11T07:26:19.089Z,25.05
2018-10-11T07:28:53.082Z,25.80
2018-10-11T07:31:27.080Z,25.75
2018-10-11T07:34:01.047Z,24.72
2018-10-11T07:36:35.010Z,24.32
2018-10-11T07:39:11.804Z,25.37
2018-10-11T07:41:45.897Z,25.45
2018-10-11T07:44:19.838Z,23.32
2018-10-11T07:46:53.868Z,23.45
2018-10-11T07:49:27.849Z,23.22
2018-10-11T07:52:01.793Z,23.20
2018-10-11T07:54:36.673Z,23.98
2018-10-11T07:57:10.787Z,23.67
2018-10-11T07:59:44.740Z,23.65
2018-10-11T08:02:18.833Z,23.87
2018-10-11T08:04:52.773Z,23.80
2018-10-11T08:07:26.849Z,23.42
2018-10-11T08:10:00.736Z,22.00
2018-10-11T08:12:34.801Z,21.57
2018-10-11T08:15:08.739Z,21.57
2018-10-11T08:17:43.015Z,21.85
2018-10-11T08:20:16.802Z,21.90
2018-10-11T08:22:50.786Z,21.40
2018-10-11T08:25:24.937Z,20.92
2018-10-11T08:28:00.241Z,22.82
2018-10-11T08:30:34.267Z,21.62
2018-10-11T08:33:08.450Z,20.23
2018-10-11T08:35:42.349Z,19.50
2018-10-11T08:38:16.690Z,20.05
2018-10-11T08:40:50.436Z,19.92
2018-10-11T08:43:24.692Z,19.60
2018-10-11T08:45:58.622Z,18.30
2018-10-11T08:48:32.592Z,18.67
2018-10-11T08:51:06.649Z,18.17
2018-10-11T08:53:40.783Z,18.12
2018-10-11T08:56:14.852Z,19.12
2018-10-11T08:58:48.854Z,18.23
2018-10-11T09:01:22.808Z,18.12
2018-10-11T09:03:57.533Z,18.45
2018-10-11T09:06:31.330Z,18.05
2018-10-11T09:09:07.759Z,18.77
2018-10-11T09:11:41.729Z,18.60
2018-10-11T09:14:15.802Z,17.87
2018-10-11T09:16:49.776Z,16.23
2018-10-11T09:19:23.874Z,15.98
2018-10-11T09:21:57.812Z,17.00
2018-10-11T09:24:31.921Z,14.70
2018-10-11T09:27:05.917Z,15.98
2018-10-11T09:29:39.925Z,17.00
2018-10-11T09:32:13.852Z,16.05
2018-10-11T09:34:47.837Z,15.90
2018-10-11T09:37:21.858Z,16.48
2018-10-11T09:39:55.913Z,16.42
2018-10-11T09:42:29.992Z,15.78
2018-10-11T09:45:04.190Z,15.48
2018-10-11T09:47:38.140Z,14.98
2018-10-11T09:50:12.135Z,14.30
2018-10-11T09:52:46.086Z,15.50
2018-10-11T09:55:20.148Z,14.93
2018-10-11T09:57:54.254Z,13.45
2018-10-11T10:00:33.206Z,14.10
2018-10-11T10:03:07.205Z,13.78
2018-10-11T10:05:41.215Z,14.55
2018-10-11T10:08:15.142Z,14.28
2018-10-11T10:10:49.095Z,14.90
2018-10-11T10:13:23.061Z,14.43
2018-10-11T10:15:57.057Z,14.98
2018-10-11T10:18:31.019Z,15.48
2018-10-11T10:21:05.272Z,14.78
2018-10-11T10:23:39.194Z,14.73
2018-10-11T10:26:13.197Z,13.43
2018-10-11T10:28:47.125Z,13.60
2018-10-11T10:31:21.116Z,14.40
2018-10-11T10:33:55.071Z,14.07
2018-10-11T10:36:29.068Z,14.50
2018-10-11T10:39:03.194Z,14.40
2018-10-11T10:41:37.153Z,14.53
2018-10-11T10:44:11.146Z,13.58
2018-10-11T10:46:45.193Z,14.23
2018-10-11T10:49:19.184Z,14.68
2018-10-11T10:51:53.225Z,14.70
2018-10-11T10:54:34.435Z,14.33
2018-10-11T10:57:08.441Z,14.68
2018-10-11T10:59:42.400Z,13.80
2018-10-11T11:02:16.500Z,12.80
2018-10-11T11:04:50.469Z,13.78
2018-10-11T11:07:24.820Z,12.65
2018-10-11T11:09:58.722Z,12.98
2018-10-11T11:12:32.797Z,13.45
2018-10-11T11:15:06.834Z,12.95
2018-10-11T11:17:40.811Z,13.90
2018-10-11T11:20:14.893Z,12.05
2018-10-11T11:22:48.982Z,13.08
2018-10-11T11:25:23.043Z,12.98
2018-10-11T11:27:57.025Z,13.45
2018-10-11T11:30:30.980Z,12.23
2018-10-11T11:33:04.982Z,11.25
2018-10-11T11:35:38.929Z,12.53
2018-10-11T11:38:12.923Z,12.43
2018-10-11T11:40:46.928Z,11.73
2018-10-11T11:43:20.914Z,11.60
2018-10-11T11:45:55.013Z,11.97
2018-10-11T11:48:29.105Z,11.93
2018-10-11T11:51:03.059Z,12.05
2018-10-11T11:53:37.495Z,11.43
2018-10-11T11:56:11.901Z,11.15
2018-10-11T11:58:45.904Z,11.33
2018-10-11T12:01:19.829Z,11.63
2018-10-11T12:03:53.985Z,10.55
2018-10-11T12:06:28.075Z,11.28
2018-10-11T12:09:02.140Z,11.00
2018-10-11T12:11:36.071Z,12.13
2018-10-11T12:14:10.363Z,12.18
2018-10-11T12:16:44.468Z,11.40
2018-10-11T12:19:18.353Z,11.43
2018-10-11T12:21:52.286Z,11.48
2018-10-11T12:24:26.274Z,11.43
2018-10-11T12:27:00.257Z,10.65
2018-10-11T12:29:34.214Z,11.73
2018-10-11T12:32:08.351Z,11.48
2018-10-11T12:34:42.377Z,11.70
2018-10-11T12:37:16.351Z,10.78
2018-10-11T12:39:50.433Z,10.88
2018-10-11T12:42:24.498Z,11.40
2018-10-11T12:44:58.470Z,11.50
2018-10-11T12:47:32.440Z,11.35
2018-10-11T12:50:07.013Z,10.82
2018-10-11T12:52:41.279Z,10.50
2018-10-11T12:55:15.400Z,11.20
2018-10-11T12:57:49.331Z,11.28
2018-10-11T13:00:23.355Z,10.60
2018-10-11T13:02:57.406Z,11.38
2018-10-11T13:05:31.350Z,11.03
2018-10-11T13:08:05.332Z,10.30
2018-10-11T13:10:39.364Z,11.25
2018-10-11T13:13:13.393Z,11.30
2018-10-11T13:15:47.548Z,10.93
2018-10-11T13:18:21.570Z,10.35
2018-10-11T13:20:55.537Z,10.45
2018-10-11T13:23:29.471Z,12.13
2018-10-11T13:26:03.458Z,10.20
2018-10-11T13:28:37.519Z,10.43
2018-10-11T13:31:11.490Z,10.75
2018-10-11T13:33:45.485Z,10.50
2018-10-11T13:36:19.470Z,11.18
2018-10-11T13:38:53.436Z,10.85
2018-10-11T13:41:27.644Z,12.37
2018-10-11T13:44:01.534Z,11.10
2018-10-11T13:46:35.612Z,10.13
2018-10-11T13:49:09.657Z,9.58
2018-10-11T13:51:43.759Z,10.30
2018-10-11T13:54:18.843Z,9.85
2018-10-11T13:56:58.013Z,11.08
2018-10-11T13:59:26.979Z,10.93
2018-10-11T14:02:01.048Z,10.72
2018-10-11T14:04:35.080Z,10.30
2018-10-11T14:07:09.034Z,10.55
2018-10-11T14:09:42.994Z,10.53
2018-10-11T14:12:17.180Z,10.13
2018-10-11T14:14:51.141Z,9.93
2018-10-11T14:17:25.143Z,9.63
2018-10-11T14:19:59.089Z,10.40
2018-10-11T14:22:33.187Z,10.78
2018-10-11T14:25:08.031Z,9.73
2018-10-11T14:27:42.176Z,10.05
2018-10-11T14:30:16.133Z,10.38
2018-10-11T14:32:50.165Z,9.98
2018-10-11T14:35:24.142Z,9.95
2018-10-11T14:37:58.171Z,9.93
2018-10-11T14:40:32.129Z,9.73
2018-10-11T14:43:06.468Z,9.65
2018-10-11T14:45:40.464Z,9.38
2018-10-11T14:48:14.645Z,9.33
2018-10-11T14:50:48.662Z,10.08
2018-10-11T14:53:22.637Z,9.60
2018-10-11T14:55:56.588Z,9.28
2018-10-11T14:58:30.590Z,9.40
2018-10-11T15:01:04.591Z,10.23
2018-10-11T15:03:38.559Z,9.20
2018-10-11T15:06:12.546Z,9.60
2018-10-11T15:08:46.503Z,9.28
2018-10-11T15:11:20.554Z,9.03
2018-10-11T15:13:54.514Z,9.33
2018-10-11T15:16:28.490Z,9.13
2018-10-11T15:19:02.552Z,9.65
2018-10-11T15:21:36.469Z,9.60
2018-10-11T15:24:10.539Z,10.00
2018-10-11T15:26:44.554Z,8.65
2018-10-11T15:29:18.694Z,9.90
2018-10-11T15:31:52.635Z,8.30
2018-10-11T15:34:26.621Z,8.83
2018-10-11T15:37:00.710Z,9.48
2018-10-11T15:39:34.699Z,9.18
2018-10-11T15:42:08.717Z,10.03
2018-10-11T15:44:42.778Z,8.28
2018-10-11T15:47:16.775Z,8.60
2018-10-11T15:49:50.787Z,9.30
2018-10-11T15:52:24.793Z,9.60
2018-10-11T15:54:58.860Z,9.08
2018-10-11T15:57:32.804Z,8.80
2018-10-11T16:00:07.103Z,9.35
2018-10-11T16:02:41.047Z,8.13
2018-10-11T16:05:15.075Z,9.65
2018-10-11T16:07:49.012Z,8.93
2018-10-11T16:10:23.046Z,9.00
2018-10-11T16:12:57.034Z,9.70
2018-10-11T16:15:31.127Z,9.03
2018-10-11T16:18:05.044Z,8.50
2018-10-11T16:20:39.223Z,8.90
2018-10-11T16:23:13.263Z,8.03
2018-10-11T16:25:47.416Z,8.90
2018-10-11T16:28:21.406Z,9.25
2018-10-11T16:30:55.443Z,9.80
2018-10-11T16:33:29.424Z,8.80
2018-10-11T16:36:03.433Z,9.23
2018-10-11T16:38:37.503Z,9.43
2018-10-11T16:41:11.645Z,9.60
2018-10-11T16:43:45.597Z,9.63
2018-10-11T16:46:19.632Z,9.15
2018-10-11T16:48:53.604Z,9.08
2018-10-11T16:51:27.595Z,9.78
2018-10-11T16:54:01.616Z,8.25
2018-10-11T16:56:35.646Z,9.13
2018-10-11T16:59:09.630Z,8.93
2018-10-11T17:01:43.685Z,8.90
2018-10-11T17:04:18.014Z,8.55
2018-10-11T17:06:52.060Z,8.75
2018-10-11T17:09:25.999Z,8.48
2018-10-11T17:12:02.495Z,8.85
2018-10-11T17:14:36.426Z,8.50
2018-10-11T17:17:10.432Z,8.85
2018-10-11T17:19:44.431Z,8.88
2018-10-11T17:22:18.515Z,9.30
2018-10-11T17:24:52.528Z,9.20
2018-10-11T17:27:26.560Z,9.83
2018-10-11T17:30:00.463Z,9.58
2018-10-11T17:32:34.443Z,9.93
2018-10-11T17:35:08.453Z,11.65
2018-10-11T17:37:42.528Z,10.55
2018-10-11T17:40:16.553Z,11.10
2018-10-11T17:42:50.576Z,11.97
2018-10-11T17:45:24.628Z,10.18
2018-10-11T17:47:58.605Z,11.08
2018-10-11T17:50:32.797Z,11.38
2018-10-11T17:53:07.263Z,12.75
2018-10-11T17:55:41.189Z,21.23
2018-10-11T17:58:15.148Z,17.90
2018-10-11T18:00:49.180Z,16.77
2018-10-11T18:03:23.186Z,13.20
2018-10-11T18:05:57.130Z,15.75
2018-10-11T18:08:31.480Z,13.80
2018-10-11T18:11:05.509Z,15.35
2018-10-11T18:13:39.604Z,16.37
2018-10-11T18:16:13.708Z,20.90
2018-10-11T18:18:47.738Z,24.00
2018-10-11T18:21:21.778Z,24.55
2018-10-11T18:23:55.729Z,21.02
2018-10-11T18:26:29.701Z,22.42
2018-10-11T18:29:03.888Z,21.45
2018-10-11T18:31:37.952Z,20.27
2018-10-11T18:34:11.948Z,16.50
2018-10-11T18:36:45.874Z,15.40
2018-10-11T18:39:19.856Z,15.48
2018-10-11T18:41:53.852Z,16.35
2018-10-11T18:44:27.975Z,15.72
2018-10-11T18:47:01.967Z,17.40
2018-10-11T18:49:36.049Z,15.30
2018-10-11T18:52:10.048Z,13.93
2018-10-11T18:54:44.326Z,14.05
2018-10-11T18:57:18.306Z,14.68
2018-10-11T18:59:52.634Z,13.90
2018-10-11T19:02:26.681Z,13.18
2018-10-11T19:05:00.745Z,13.98
2018-10-11T19:07:34.711Z,14.18
2018-10-11T19:10:09.825Z,13.13
2018-10-11T19:12:43.931Z,13.53
2018-10-11T19:15:19.870Z,14.83
2018-10-11T19:17:53.914Z,15.58
2018-10-11T19:20:28.127Z,13.90
2018-10-11T19:23:02.036Z,12.60
2018-10-11T19:25:36.726Z,14.30
2018-10-11T19:28:10.715Z,15.40
2018-10-11T19:30:44.763Z,15.18
2018-10-11T19:33:18.815Z,14.15
2018-10-11T19:35:52.801Z,15.28
2018-10-11T19:38:26.884Z,15.40
2018-10-11T19:41:01.065Z,14.20
2018-10-11T19:43:35.119Z,15.20
2018-10-11T19:46:09.810Z,13.08
2018-10-11T19:48:43.874Z,14.85
2018-10-11T19:51:17.925Z,13.32
2018-10-11T19:53:51.950Z,15.15
2018-10-11T19:56:31.325Z,14.55
2018-10-11T19:59:05.387Z,14.40
2018-10-11T20:01:39.361Z,13.88
2018-10-11T20:04:13.410Z,15.23
2018-10-11T20:06:47.359Z,14.50
2018-10-11T20:09:21.328Z,14.83
2018-10-11T20:11:55.317Z,12.85
2018-10-11T20:14:29.278Z,16.12
2018-10-11T20:17:03.387Z,15.25
2018-10-11T20:19:37.401Z,16.55
2018-10-11T20:22:12.284Z,14.35
2018-10-11T20:24:46.309Z,15.60
2018-10-11T20:27:20.259Z,14.75
2018-10-11T20:29:54.908Z,16.42
2018-10-11T20:32:28.988Z,14.87
2018-10-11T20:35:02.986Z,17.70
2018-10-11T20:37:37.287Z,17.12
2018-10-11T20:40:11.509Z,15.30
2018-10-11T20:42:45.467Z,18.02
2018-10-11T20:45:19.533Z,16.10
2018-10-11T20:47:53.525Z,15.83
2018-10-11T20:50:27.695Z,14.93
2018-10-11T20:53:01.736Z,15.40
2018-10-11T20:55:35.833Z,15.48
2018-10-11T20:58:10.010Z,14.33
2018-10-11T21:00:44.332Z,18.75
2018-10-11T21:03:18.350Z,16.00
2018-10-11T21:05:52.384Z,17.00
2018-10-11T21:08:26.443Z,16.52
2018-10-11T21:11:00.481Z,14.85
2018-10-11T21:13:34.491Z,15.03
2018-10-11T21:16:08.579Z,17.07
2018-10-11T21:18:42.558Z,16.07
2018-10-11T21:21:16.510Z,17.10
2018-10-11T21:23:50.484Z,15.45
2018-10-11T21:26:24.478Z,16.12
2018-10-11T21:28:58.427Z,16.20
2018-10-11T21:31:32.388Z,14.65
2018-10-11T21:34:06.590Z,16.17
2018-10-11T21:36:40.531Z,16.27
2018-10-11T21:39:14.592Z,16.00
2018-10-11T21:41:48.725Z,16.27
2018-10-11T21:44:22.787Z,16.73
2018-10-11T21:46:56.885Z,16.45
2018-10-11T21:49:31.278Z,18.23
2018-10-11T21:52:05.456Z,17.02
2018-10-11T21:54:39.377Z,17.63
2018-10-11T21:57:13.350Z,15.30
2018-10-11T21:59:47.371Z,16.53
2018-10-11T22:02:21.362Z,19.57
2018-10-11T22:04:55.321Z,21.77
2018-10-11T22:07:29.392Z,19.47
2018-10-11T22:10:03.380Z,16.33
2018-10-11T22:12:37.315Z,16.30
2018-10-11T22:15:11.403Z,19.10
2018-10-11T22:17:45.389Z,16.37
2018-10-11T22:20:19.454Z,20.10
2018-10-11T22:22:53.462Z,19.30
2018-10-11T22:25:28.769Z,20.80
2018-10-11T22:28:02.779Z,18.02
2018-10-11T22:30:36.752Z,16.87
2018-10-11T22:33:10.750Z,16.33
2018-10-11T22:35:44.727Z,16.47
2018-10-11T22:38:18.889Z,17.70
2018-10-11T22:40:52.970Z,18.80
2018-10-11T22:43:27.003Z,16.77
2018-10-11T22:46:01.106Z,19.97
2018-10-11T22:48:35.140Z,18.30
2018-10-11T22:51:09.192Z,18.67
2018-10-11T22:53:43.501Z,17.67
2018-10-11T22:56:21.050Z,20.27
2018-10-11T22:58:55.136Z,20.57
2018-10-11T23:01:29.179Z,25.23
2018-10-11T23:04:03.297Z,20.33
2018-10-11T23:06:37.235Z,19.63
2018-10-11T23:09:11.411Z,19.17
2018-10-11T23:11:45.424Z,18.70
2018-10-11T23:14:19.561Z,19.33
2018-10-11T23:16:53.520Z,19.20
2018-10-11T23:19:27.883Z,20.80
2018-10-11T23:22:01.828Z,21.20
2018-10-11T23:24:35.764Z,20.00
2018-10-11T23:27:09.697Z,21.67
2018-10-11T23:29:43.655Z,20.03
2018-10-11T23:32:17.567Z,21.50
2018-10-11T23:34:51.514Z,20.80
2018-10-11T23:37:25.530Z,19.10
2018-10-11T23:39:59.913Z,19.97
2018-10-11T23:42:33.864Z,22.37
2018-10-11T23:45:09.055Z,24.70
2018-10-11T23:47:43.585Z,18.33
2018-10-11T23:50:17.699Z,19.53
2018-10-11T23:52:51.655Z,18.80
2018-10-11T23:55:25.700Z,17.87
2018-10-11T23:57:59.962Z,17.77
